sensor_id;sensor_type;location;lat;lon;timestamp;temperature;humidity
25753;DHT22;13600;50.816;4.416;2023-04-24T00:00:32;10.90;99.90
25753;DHT22;13600;50.816;4.416;2023-04-24T00:02:58;10.80;99.90
25753;DHT22;13600;50.816;4.416;2023-04-24T00:05:24;10.70;99.90
25753;DHT22;13600;50.816;4.416;2023-04-24T00:07:49;10.70;99.90
25753;DHT22;13600;50.816;4.416;2023-04-24T00:10:18;10.60;99.90
25753;DHT22;13600;50.816;4.416;2023-04-24T00:12:43;10.60;99.90
25753;DHT22;13600;50.816;4.416;2023-04-24T00:15:09;10.50;99.90
25753;DHT22;13600;50.816;4.416;2023-04-24T00:17:35;10.60;99.90
25753;DHT22;13600;50.816;4.416;2023-04-24T00:20:01;10.60;99.90
25753;DHT22;13600;50.816;4.416;2023-04-24T00:22:30;10.60;99.90
25753;DHT22;13600;50.816;4.416;2023-04-24T00:24:55;10.60;99.90
25753;DHT22;13600;50.816;4.416;2023-04-24T00:27:21;10.60;99.90
25753;DHT22;13600;50.816;4.416;2023-04-24T00:29:46;10.60;99.90
25753;DHT22;13600;50.816;4.416;2023-04-24T00:32:12;10.60;99.90
25753;DHT22;13600;50.816;4.416;2023-04-24T00:34:39;10.60;99.90
25753;DHT22;13600;50.816;4.416;2023-04-24T00:37:05;10.60;99.90
25753;DHT22;13600;50.816;4.416;2023-04-24T00:39:31;10.50;99.90
25753;DHT22;13600;50.816;4.416;2023-04-24T00:41:57;10.40;99.90
25753;DHT22;13600;50.816;4.416;2023-04-24T00:44:22;10.40;99.90
25753;DHT22;13600;50.816;4.416;2023-04-24T00:46:48;10.40;99.90
25753;DHT22;13600;50.816;4.416;2023-04-24T00:49:20;10.40;99.90
25753;DHT22;13600;50.816;4.416;2023-04-24T00:51:46;10.50;99.90
25753;DHT22;13600;50.816;4.416;2023-04-24T00:54:12;10.40;99.90
25753;DHT22;13600;50.816;4.416;2023-04-24T00:56:38;10.40;99.90
25753;DHT22;13600;50.816;4.416;2023-04-24T00:59:04;10.50;99.90
25753;DHT22;13600;50.816;4.416;2023-04-24T01:01:30;10.60;99.90
25753;DHT22;13600;50.816;4.416;2023-04-24T01:03:55;10.50;99.90
25753;DHT22;13600;50.816;4.416;2023-04-24T01:06:22;10.50;99.90
25753;DHT22;13600;50.816;4.416;2023-04-24T01:08:48;10.60;99.90
25753;DHT22;13600;50.816;4.416;2023-04-24T01:11:15;10.70;99.90
25753;DHT22;13600;50.816;4.416;2023-04-24T01:13:40;10.70;99.90
25753;DHT22;13600;50.816;4.416;2023-04-24T01:16:06;10.50;99.90
25753;DHT22;13600;50.816;4.416;2023-04-24T01:18:31;10.50;99.90
25753;DHT22;13600;50.816;4.416;2023-04-24T01:20:58;10.40;99.90
25753;DHT22;13600;50.816;4.416;2023-04-24T01:23:24;10.50;99.90
25753;DHT22;13600;50.816;4.416;2023-04-24T01:25:50;10.50;99.90
25753;DHT22;13600;50.816;4.416;2023-04-24T01:28:16;10.50;99.90
25753;DHT22;13600;50.816;4.416;2023-04-24T01:30:42;10.30;99.90
25753;DHT22;13600;50.816;4.416;2023-04-24T01:33:07;10.20;99.90
25753;DHT22;13600;50.816;4.416;2023-04-24T01:35:33;10.00;99.90
25753;DHT22;13600;50.816;4.416;2023-04-24T01:37:59;10.00;99.90
25753;DHT22;13600;50.816;4.416;2023-04-24T01:40:25;9.90;99.90
25753;DHT22;13600;50.816;4.416;2023-04-24T01:42:51;9.90;99.90
25753;DHT22;13600;50.816;4.416;2023-04-24T01:45:16;9.80;99.90
25753;DHT22;13600;50.816;4.416;2023-04-24T01:47:42;9.80;99.90
25753;DHT22;13600;50.816;4.416;2023-04-24T01:50:08;9.80;99.90
25753;DHT22;13600;50.816;4.416;2023-04-24T01:52:34;10.00;99.90
25753;DHT22;13600;50.816;4.416;2023-04-24T01:55:01;10.00;99.90
25753;DHT22;13600;50.816;4.416;2023-04-24T01:57:27;9.90;99.90
25753;DHT22;13600;50.816;4.416;2023-04-24T01:59:55;9.90;99.90
25753;DHT22;13600;50.816;4.416;2023-04-24T02:02:21;10.00;99.90
25753;DHT22;13600;50.816;4.416;2023-04-24T02:04:49;10.00;99.90
25753;DHT22;13600;50.816;4.416;2023-04-24T02:07:15;10.10;99.90
25753;DHT22;13600;50.816;4.416;2023-04-24T02:09:40;10.00;99.90
25753;DHT22;13600;50.816;4.416;2023-04-24T02:12:06;10.10;99.90
25753;DHT22;13600;50.816;4.416;2023-04-24T02:14:31;10.20;99.90
25753;DHT22;13600;50.816;4.416;2023-04-24T02:16:57;10.40;99.90
25753;DHT22;13600;50.816;4.416;2023-04-24T02:19:24;10.30;99.90
25753;DHT22;13600;50.816;4.416;2023-04-24T02:21:50;10.20;99.90
25753;DHT22;13600;50.816;4.416;2023-04-24T02:24:15;10.00;99.90
25753;DHT22;13600;50.816;4.416;2023-04-24T02:26:42;9.90;99.90
25753;DHT22;13600;50.816;4.416;2023-04-24T02:29:08;9.80;99.90
25753;DHT22;13600;50.816;4.416;2023-04-24T02:31:33;9.70;99.90
25753;DHT22;13600;50.816;4.416;2023-04-24T02:33:59;9.70;99.90
25753;DHT22;13600;50.816;4.416;2023-04-24T02:36:24;9.70;99.90
25753;DHT22;13600;50.816;4.416;2023-04-24T02:38:50;9.80;99.90
25753;DHT22;13600;50.816;4.416;2023-04-24T02:41:16;9.70;99.90
25753;DHT22;13600;50.816;4.416;2023-04-24T02:43:42;9.80;99.90
25753;DHT22;13600;50.816;4.416;2023-04-24T02:46:08;9.70;99.90
25753;DHT22;13600;50.816;4.416;2023-04-24T02:48:33;9.90;99.90
25753;DHT22;13600;50.816;4.416;2023-04-24T02:50:59;9.90;99.90
25753;DHT22;13600;50.816;4.416;2023-04-24T02:53:25;9.90;99.90
25753;DHT22;13600;50.816;4.416;2023-04-24T02:55:50;9.90;99.90
25753;DHT22;13600;50.816;4.416;2023-04-24T02:58:16;9.90;99.90
25753;DHT22;13600;50.816;4.416;2023-04-24T03:00:42;9.90;99.90
25753;DHT22;13600;50.816;4.416;2023-04-24T03:03:08;10.00;99.90
25753;DHT22;13600;50.816;4.416;2023-04-24T03:05:34;9.90;99.90
25753;DHT22;13600;50.816;4.416;2023-04-24T03:08:00;9.80;99.90
25753;DHT22;13600;50.816;4.416;2023-04-24T03:10:25;9.70;99.90
25753;DHT22;13600;50.816;4.416;2023-04-24T03:12:51;9.70;99.90
25753;DHT22;13600;50.816;4.416;2023-04-24T03:15:16;9.70;99.90
25753;DHT22;13600;50.816;4.416;2023-04-24T03:17:42;9.60;99.90
25753;DHT22;13600;50.816;4.416;2023-04-24T03:20:08;9.70;99.90
25753;DHT22;13600;50.816;4.416;2023-04-24T03:22:34;9.60;99.90
25753;DHT22;13600;50.816;4.416;2023-04-24T03:25:00;9.50;99.90
25753;DHT22;13600;50.816;4.416;2023-04-24T03:27:26;9.50;99.90
25753;DHT22;13600;50.816;4.416;2023-04-24T03:29:51;9.50;99.90
25753;DHT22;13600;50.816;4.416;2023-04-24T03:32:23;9.50;99.90
25753;DHT22;13600;50.816;4.416;2023-04-24T03:34:49;9.50;99.90
25753;DHT22;13600;50.816;4.416;2023-04-24T03:37:15;9.50;99.90
25753;DHT22;13600;50.816;4.416;2023-04-24T03:39:41;9.60;99.90
25753;DHT22;13600;50.816;4.416;2023-04-24T03:42:06;9.50;99.90
25753;DHT22;13600;50.816;4.416;2023-04-24T03:44:33;9.60;99.90
25753;DHT22;13600;50.816;4.416;2023-04-24T03:46:59;9.60;99.90
25753;DHT22;13600;50.816;4.416;2023-04-24T03:49:25;9.50;99.90
25753;DHT22;13600;50.816;4.416;2023-04-24T03:51:51;9.60;99.90
25753;DHT22;13600;50.816;4.416;2023-04-24T03:54:17;9.60;99.90
25753;DHT22;13600;50.816;4.416;2023-04-24T03:56:43;9.60;99.90
25753;DHT22;13600;50.816;4.416;2023-04-24T03:59:08;9.50;99.90
25753;DHT22;13600;50.816;4.416;2023-04-24T04:01:34;9.50;99.90
25753;DHT22;13600;50.816;4.416;2023-04-24T04:04:02;9.50;99.90
25753;DHT22;13600;50.816;4.416;2023-04-24T04:06:28;9.60;99.90
25753;DHT22;13600;50.816;4.416;2023-04-24T04:08:53;9.70;99.90
25753;DHT22;13600;50.816;4.416;2023-04-24T04:11:19;9.80;99.90
25753;DHT22;13600;50.816;4.416;2023-04-24T04:13:45;9.80;99.90
25753;DHT22;13600;50.816;4.416;2023-04-24T04:16:13;9.80;99.90
25753;DHT22;13600;50.816;4.416;2023-04-24T04:18:39;9.90;99.90
25753;DHT22;13600;50.816;4.416;2023-04-24T04:21:04;9.90;99.90
25753;DHT22;13600;50.816;4.416;2023-04-24T04:23:30;9.90;99.90
25753;DHT22;13600;50.816;4.416;2023-04-24T04:25:57;9.90;99.90
25753;DHT22;13600;50.816;4.416;2023-04-24T04:28:23;9.90;99.90
25753;DHT22;13600;50.816;4.416;2023-04-24T04:30:50;9.80;99.90
25753;DHT22;13600;50.816;4.416;2023-04-24T04:33:21;9.80;99.90
25753;DHT22;13600;50.816;4.416;2023-04-24T04:35:47;9.80;99.90
25753;DHT22;13600;50.816;4.416;2023-04-24T04:38:14;9.80;99.90
25753;DHT22;13600;50.816;4.416;2023-04-24T04:40:40;9.80;99.90
25753;DHT22;13600;50.816;4.416;2023-04-24T04:43:06;9.80;99.90
25753;DHT22;13600;50.816;4.416;2023-04-24T04:45:31;9.80;99.90
25753;DHT22;13600;50.816;4.416;2023-04-24T04:47:58;9.80;99.90
25753;DHT22;13600;50.816;4.416;2023-04-24T04:50:26;9.90;99.90
25753;DHT22;13600;50.816;4.416;2023-04-24T04:52:52;9.80;99.90
25753;DHT22;13600;50.816;4.416;2023-04-24T04:55:17;9.90;99.90
25753;DHT22;13600;50.816;4.416;2023-04-24T04:57:45;9.90;99.90
25753;DHT22;13600;50.816;4.416;2023-04-24T05:00:11;9.80;99.90
25753;DHT22;13600;50.816;4.416;2023-04-24T05:02:37;9.70;99.90
25753;DHT22;13600;50.816;4.416;2023-04-24T05:05:06;9.60;99.90
25753;DHT22;13600;50.816;4.416;2023-04-24T05:07:31;9.50;99.90
25753;DHT22;13600;50.816;4.416;2023-04-24T05:09:57;9.60;99.90
25753;DHT22;13600;50.816;4.416;2023-04-24T05:12:22;9.50;99.90
25753;DHT22;13600;50.816;4.416;2023-04-24T05:14:48;9.50;99.90
25753;DHT22;13600;50.816;4.416;2023-04-24T05:17:14;9.60;99.90
25753;DHT22;13600;50.816;4.416;2023-04-24T05:19:40;9.70;99.90
25753;DHT22;13600;50.816;4.416;2023-04-24T05:22:05;9.70;99.90
25753;DHT22;13600;50.816;4.416;2023-04-24T05:24:32;9.70;99.90
25753;DHT22;13600;50.816;4.416;2023-04-24T05:26:58;9.70;99.90
25753;DHT22;13600;50.816;4.416;2023-04-24T05:29:24;9.70;99.90
25753;DHT22;13600;50.816;4.416;2023-04-24T05:31:51;9.60;99.90
25753;DHT22;13600;50.816;4.416;2023-04-24T05:34:17;9.60;99.90
25753;DHT22;13600;50.816;4.416;2023-04-24T05:36:42;9.60;99.90
25753;DHT22;13600;50.816;4.416;2023-04-24T05:39:08;9.60;99.90
25753;DHT22;13600;50.816;4.416;2023-04-24T05:41:35;9.60;99.90
25753;DHT22;13600;50.816;4.416;2023-04-24T05:44:01;9.80;99.90
25753;DHT22;13600;50.816;4.416;2023-04-24T05:46:27;9.80;99.90
25753;DHT22;13600;50.816;4.416;2023-04-24T05:48:52;9.90;99.90
25753;DHT22;13600;50.816;4.416;2023-04-24T05:51:18;9.90;99.90
25753;DHT22;13600;50.816;4.416;2023-04-24T05:53:44;9.80;99.90
25753;DHT22;13600;50.816;4.416;2023-04-24T05:56:09;9.70;99.90
25753;DHT22;13600;50.816;4.416;2023-04-24T05:58:35;9.80;99.90
25753;DHT22;13600;50.816;4.416;2023-04-24T06:01:01;9.80;99.90
25753;DHT22;13600;50.816;4.416;2023-04-24T06:03:27;9.70;99.90
25753;DHT22;13600;50.816;4.416;2023-04-24T06:05:53;9.60;99.90
25753;DHT22;13600;50.816;4.416;2023-04-24T06:08:18;9.60;99.90
25753;DHT22;13600;50.816;4.416;2023-04-24T06:10:44;9.60;99.90
25753;DHT22;13600;50.816;4.416;2023-04-24T06:15:44;9.60;99.90
25753;DHT22;13600;50.816;4.416;2023-04-24T06:18:13;9.60;99.90
25753;DHT22;13600;50.816;4.416;2023-04-24T06:23:09;9.70;99.90
25753;DHT22;13600;50.816;4.416;2023-04-24T06:25:35;9.60;99.90
25753;DHT22;13600;50.816;4.416;2023-04-24T06:28:06;9.60;99.90
25753;DHT22;13600;50.816;4.416;2023-04-24T06:30:32;9.70;99.90
25753;DHT22;13600;50.816;4.416;2023-04-24T06:32:58;9.70;99.90
25753;DHT22;13600;50.816;4.416;2023-04-24T06:35:24;9.60;99.90
25753;DHT22;13600;50.816;4.416;2023-04-24T06:37:51;9.60;99.90
25753;DHT22;13600;50.816;4.416;2023-04-24T06:40:18;9.50;99.90
25753;DHT22;13600;50.816;4.416;2023-04-24T06:42:45;9.50;99.90
25753;DHT22;13600;50.816;4.416;2023-04-24T06:45:10;9.50;99.90
25753;DHT22;13600;50.816;4.416;2023-04-24T06:47:37;9.60;99.90
25753;DHT22;13600;50.816;4.416;2023-04-24T06:50:03;9.70;99.90
25753;DHT22;13600;50.816;4.416;2023-04-24T06:52:29;9.80;99.90
25753;DHT22;13600;50.816;4.416;2023-04-24T06:55:01;9.80;99.90
25753;DHT22;13600;50.816;4.416;2023-04-24T06:57:27;9.80;99.90
25753;DHT22;13600;50.816;4.416;2023-04-24T06:59:54;9.80;99.90
25753;DHT22;13600;50.816;4.416;2023-04-24T07:02:20;9.90;99.90
25753;DHT22;13600;50.816;4.416;2023-04-24T07:04:45;10.10;99.90
25753;DHT22;13600;50.816;4.416;2023-04-24T07:07:13;10.00;99.90
25753;DHT22;13600;50.816;4.416;2023-04-24T07:09:39;10.20;99.90
25753;DHT22;13600;50.816;4.416;2023-04-24T07:12:08;10.10;99.90
25753;DHT22;13600;50.816;4.416;2023-04-24T07:14:36;10.00;99.90
25753;DHT22;13600;50.816;4.416;2023-04-24T07:17:02;9.80;99.90
25753;DHT22;13600;50.816;4.416;2023-04-24T07:19:27;9.80;99.90
25753;DHT22;13600;50.816;4.416;2023-04-24T07:21:53;9.90;99.90
25753;DHT22;13600;50.816;4.416;2023-04-24T07:24:20;10.00;99.90
25753;DHT22;13600;50.816;4.416;2023-04-24T07:26:46;10.20;99.90
25753;DHT22;13600;50.816;4.416;2023-04-24T07:29:12;10.40;99.90
25753;DHT22;13600;50.816;4.416;2023-04-24T07:31:37;10.50;99.90
25753;DHT22;13600;50.816;4.416;2023-04-24T07:34:03;10.50;99.90
25753;DHT22;13600;50.816;4.416;2023-04-24T07:36:29;10.40;99.90
25753;DHT22;13600;50.816;4.416;2023-04-24T07:38:54;10.50;99.90
25753;DHT22;13600;50.816;4.416;2023-04-24T07:41:21;10.50;99.90
25753;DHT22;13600;50.816;4.416;2023-04-24T07:43:47;10.60;99.90
25753;DHT22;13600;50.816;4.416;2023-04-24T07:46:13;10.70;99.90
25753;DHT22;13600;50.816;4.416;2023-04-24T07:48:38;10.70;99.90
25753;DHT22;13600;50.816;4.416;2023-04-24T07:51:04;10.80;99.90
25753;DHT22;13600;50.816;4.416;2023-04-24T07:53:30;10.80;99.90
25753;DHT22;13600;50.816;4.416;2023-04-24T07:55:55;10.90;99.90
25753;DHT22;13600;50.816;4.416;2023-04-24T07:58:21;11.00;99.90
25753;DHT22;13600;50.816;4.416;2023-04-24T08:00:47;11.00;99.90
25753;DHT22;13600;50.816;4.416;2023-04-24T08:03:12;11.10;99.90
25753;DHT22;13600;50.816;4.416;2023-04-24T08:05:38;11.10;99.90
25753;DHT22;13600;50.816;4.416;2023-04-24T08:08:04;11.00;99.90
25753;DHT22;13600;50.816;4.416;2023-04-24T08:10:29;10.90;99.90
25753;DHT22;13600;50.816;4.416;2023-04-24T08:12:55;11.00;99.90
25753;DHT22;13600;50.816;4.416;2023-04-24T08:15:21;11.00;99.90
25753;DHT22;13600;50.816;4.416;2023-04-24T08:17:47;10.80;99.90
25753;DHT22;13600;50.816;4.416;2023-04-24T08:20:12;10.80;99.90
25753;DHT22;13600;50.816;4.416;2023-04-24T08:22:40;11.10;99.90
25753;DHT22;13600;50.816;4.416;2023-04-24T08:25:06;11.10;99.90
25753;DHT22;13600;50.816;4.416;2023-04-24T08:27:32;11.10;99.90
25753;DHT22;13600;50.816;4.416;2023-04-24T08:29:58;11.30;99.90
25753;DHT22;13600;50.816;4.416;2023-04-24T08:32:25;11.50;99.90
25753;DHT22;13600;50.816;4.416;2023-04-24T08:34:54;11.50;99.90
25753;DHT22;13600;50.816;4.416;2023-04-24T08:37:22;11.60;99.90
25753;DHT22;13600;50.816;4.416;2023-04-24T08:39:47;11.60;99.90
25753;DHT22;13600;50.816;4.416;2023-04-24T08:42:13;11.90;99.90
25753;DHT22;13600;50.816;4.416;2023-04-24T08:44:40;12.10;99.90
25753;DHT22;13600;50.816;4.416;2023-04-24T08:47:06;12.10;99.90
25753;DHT22;13600;50.816;4.416;2023-04-24T08:49:32;12.80;99.90
25753;DHT22;13600;50.816;4.416;2023-04-24T08:51:58;15.70;99.90
25753;DHT22;13600;50.816;4.416;2023-04-24T08:54:25;17.30;99.90
25753;DHT22;13600;50.816;4.416;2023-04-24T08:56:50;17.70;99.90
25753;DHT22;13600;50.816;4.416;2023-04-24T08:59:18;19.40;99.90
25753;DHT22;13600;50.816;4.416;2023-04-24T09:01:45;20.60;99.90
25753;DHT22;13600;50.816;4.416;2023-04-24T09:04:12;19.80;99.90
25753;DHT22;13600;50.816;4.416;2023-04-24T09:06:39;19.50;99.90
25753;DHT22;13600;50.816;4.416;2023-04-24T09:09:05;18.80;99.90
25753;DHT22;13600;50.816;4.416;2023-04-24T09:11:31;19.30;99.90
25753;DHT22;13600;50.816;4.416;2023-04-24T09:13:57;18.70;99.90
25753;DHT22;13600;50.816;4.416;2023-04-24T09:16:23;19.70;99.90
25753;DHT22;13600;50.816;4.416;2023-04-24T09:18:50;20.40;99.90
25753;DHT22;13600;50.816;4.416;2023-04-24T09:21:15;20.30;99.90
25753;DHT22;13600;50.816;4.416;2023-04-24T09:23:41;20.90;99.90
25753;DHT22;13600;50.816;4.416;2023-04-24T09:26:06;19.40;99.90
25753;DHT22;13600;50.816;4.416;2023-04-24T09:28:37;18.30;99.90
25753;DHT22;13600;50.816;4.416;2023-04-24T09:31:08;17.10;99.90
25753;DHT22;13600;50.816;4.416;2023-04-24T09:33:34;15.90;99.90
25753;DHT22;13600;50.816;4.416;2023-04-24T09:35:59;14.90;99.90
25753;DHT22;13600;50.816;4.416;2023-04-24T09:38:32;14.40;99.90
25753;DHT22;13600;50.816;4.416;2023-04-24T09:41:07;13.90;99.90
25753;DHT22;13600;50.816;4.416;2023-04-24T09:43:33;13.70;99.90
25753;DHT22;13600;50.816;4.416;2023-04-24T09:46:05;13.70;99.90
25753;DHT22;13600;50.816;4.416;2023-04-24T09:48:35;15.20;99.90
25753;DHT22;13600;50.816;4.416;2023-04-24T09:51:02;17.60;99.90
25753;DHT22;13600;50.816;4.416;2023-04-24T09:53:29;20.00;99.90
25753;DHT22;13600;50.816;4.416;2023-04-24T09:55:55;18.80;99.90
25753;DHT22;13600;50.816;4.416;2023-04-24T09:58:24;16.90;99.90
25753;DHT22;13600;50.816;4.416;2023-04-24T10:00:52;15.70;99.90
25753;DHT22;13600;50.816;4.416;2023-04-24T10:03:18;14.80;99.90
25753;DHT22;13600;50.816;4.416;2023-04-24T10:05:44;14.20;99.90
25753;DHT22;13600;50.816;4.416;2023-04-24T10:08:11;14.10;99.90
25753;DHT22;13600;50.816;4.416;2023-04-24T10:10:41;14.00;99.90
25753;DHT22;13600;50.816;4.416;2023-04-24T10:13:07;14.20;99.90
25753;DHT22;13600;50.816;4.416;2023-04-24T10:15:32;14.20;99.90
25753;DHT22;13600;50.816;4.416;2023-04-24T10:17:58;13.90;99.90
25753;DHT22;13600;50.816;4.416;2023-04-24T10:20:25;13.80;99.90
25753;DHT22;13600;50.816;4.416;2023-04-24T10:22:52;13.70;99.90
25753;DHT22;13600;50.816;4.416;2023-04-24T10:25:21;13.50;99.90
25753;DHT22;13600;50.816;4.416;2023-04-24T10:27:47;13.50;99.90
25753;DHT22;13600;50.816;4.416;2023-04-24T10:30:13;13.60;99.90
25753;DHT22;13600;50.816;4.416;2023-04-24T10:32:39;14.00;99.90
25753;DHT22;13600;50.816;4.416;2023-04-24T10:35:08;14.10;99.90
25753;DHT22;13600;50.816;4.416;2023-04-24T10:37:37;14.10;99.90
25753;DHT22;13600;50.816;4.416;2023-04-24T10:40:03;13.80;99.90
25753;DHT22;13600;50.816;4.416;2023-04-24T10:42:29;13.80;99.90
25753;DHT22;13600;50.816;4.416;2023-04-24T10:44:55;13.60;99.90
25753;DHT22;13600;50.816;4.416;2023-04-24T10:47:23;13.50;99.90
25753;DHT22;13600;50.816;4.416;2023-04-24T10:49:50;13.40;99.90
25753;DHT22;13600;50.816;4.416;2023-04-24T10:52:16;13.80;99.90
25753;DHT22;13600;50.816;4.416;2023-04-24T10:54:45;14.50;99.90
25753;DHT22;13600;50.816;4.416;2023-04-24T10:57:25;15.00;99.90
25753;DHT22;13600;50.816;4.416;2023-04-24T11:02:38;16.40;99.90
25753;DHT22;13600;50.816;4.416;2023-04-24T11:05:04;16.90;99.90
25753;DHT22;13600;50.816;4.416;2023-04-24T11:08:07;17.20;99.90
25753;DHT22;13600;50.816;4.416;2023-04-24T11:10:28;16.40;99.90
25753;DHT22;13600;50.816;4.416;2023-04-24T11:12:54;17.20;99.90
25753;DHT22;13600;50.816;4.416;2023-04-24T11:15:20;16.90;99.90
25753;DHT22;13600;50.816;4.416;2023-04-24T11:17:45;17.30;99.90
25753;DHT22;13600;50.816;4.416;2023-04-24T11:20:11;17.70;99.90
25753;DHT22;13600;50.816;4.416;2023-04-24T11:22:38;17.50;99.90
25753;DHT22;13600;50.816;4.416;2023-04-24T11:25:06;17.60;99.90
25753;DHT22;13600;50.816;4.416;2023-04-24T11:27:42;17.00;99.90
25753;DHT22;13600;50.816;4.416;2023-04-24T11:30:08;17.00;99.90
25753;DHT22;13600;50.816;4.416;2023-04-24T11:35:01;17.70;99.90
25753;DHT22;13600;50.816;4.416;2023-04-24T11:37:29;17.10;99.90
25753;DHT22;13600;50.816;4.416;2023-04-24T11:39:58;16.60;99.90
25753;DHT22;13600;50.816;4.416;2023-04-24T11:42:24;16.20;99.90
25753;DHT22;13600;50.816;4.416;2023-04-24T11:44:54;16.20;99.90
25753;DHT22;13600;50.816;4.416;2023-04-24T11:47:29;16.30;99.90
25753;DHT22;13600;50.816;4.416;2023-04-24T11:49:55;16.30;99.90
25753;DHT22;13600;50.816;4.416;2023-04-24T11:52:20;16.10;99.90
25753;DHT22;13600;50.816;4.416;2023-04-24T11:54:47;16.00;99.90
25753;DHT22;13600;50.816;4.416;2023-04-24T11:57:13;16.20;99.90
25753;DHT22;13600;50.816;4.416;2023-04-24T11:59:38;17.10;99.90
25753;DHT22;13600;50.816;4.416;2023-04-24T12:02:04;17.70;99.90
25753;DHT22;13600;50.816;4.416;2023-04-24T12:04:38;19.10;99.90
25753;DHT22;13600;50.816;4.416;2023-04-24T12:07:04;18.70;99.90
25753;DHT22;13600;50.816;4.416;2023-04-24T12:09:46;17.70;99.90
25753;DHT22;13600;50.816;4.416;2023-04-24T12:12:12;16.80;99.90
25753;DHT22;13600;50.816;4.416;2023-04-24T12:14:42;17.00;99.90
25753;DHT22;13600;50.816;4.416;2023-04-24T12:17:07;17.80;99.90
25753;DHT22;13600;50.816;4.416;2023-04-24T12:19:33;20.20;99.90
25753;DHT22;13600;50.816;4.416;2023-04-24T12:22:02;21.50;99.90
25753;DHT22;13600;50.816;4.416;2023-04-24T12:24:29;23.10;97.70
25753;DHT22;13600;50.816;4.416;2023-04-24T12:26:55;24.30;94.30
25753;DHT22;13600;50.816;4.416;2023-04-24T12:29:21;25.10;88.80
25753;DHT22;13600;50.816;4.416;2023-04-24T12:31:49;24.70;87.60
25753;DHT22;13600;50.816;4.416;2023-04-24T12:34:21;24.90;84.20
25753;DHT22;13600;50.816;4.416;2023-04-24T12:36:47;22.50;87.00
25753;DHT22;13600;50.816;4.416;2023-04-24T12:39:19;22.70;91.10
25753;DHT22;13600;50.816;4.416;2023-04-24T12:42:25;22.60;92.20
25753;DHT22;13600;50.816;4.416;2023-04-24T12:44:38;22.50;89.10
25753;DHT22;13600;50.816;4.416;2023-04-24T12:47:03;22.20;91.80
25753;DHT22;13600;50.816;4.416;2023-04-24T12:49:30;22.10;91.70
25753;DHT22;13600;50.816;4.416;2023-04-24T12:51:55;24.00;90.30
25753;DHT22;13600;50.816;4.416;2023-04-24T12:54:21;24.50;82.00
25753;DHT22;13600;50.816;4.416;2023-04-24T12:56:47;25.50;80.20
25753;DHT22;13600;50.816;4.416;2023-04-24T12:59:13;25.10;78.30
25753;DHT22;13600;50.816;4.416;2023-04-24T13:01:38;24.40;78.50
25753;DHT22;13600;50.816;4.416;2023-04-24T13:04:04;23.60;79.10
25753;DHT22;13600;50.816;4.416;2023-04-24T13:06:30;22.50;83.80
25753;DHT22;13600;50.816;4.416;2023-04-24T13:08:56;21.50;84.80
25753;DHT22;13600;50.816;4.416;2023-04-24T13:11:23;21.20;89.20
25753;DHT22;13600;50.816;4.416;2023-04-24T13:13:49;20.90;88.10
25753;DHT22;13600;50.816;4.416;2023-04-24T13:16:14;19.60;91.30
25753;DHT22;13600;50.816;4.416;2023-04-24T13:18:40;19.20;92.70
25753;DHT22;13600;50.816;4.416;2023-04-24T13:21:07;19.00;93.60
25753;DHT22;13600;50.816;4.416;2023-04-24T13:23:32;19.00;94.30
25753;DHT22;13600;50.816;4.416;2023-04-24T13:25:58;18.70;95.40
25753;DHT22;13600;50.816;4.416;2023-04-24T13:28:24;20.00;94.70
25753;DHT22;13600;50.816;4.416;2023-04-24T13:30:50;21.50;90.20
25753;DHT22;13600;50.816;4.416;2023-04-24T13:33:15;23.50;85.70
25753;DHT22;13600;50.816;4.416;2023-04-24T13:35:41;23.80;82.20
25753;DHT22;13600;50.816;4.416;2023-04-24T13:38:06;22.80;84.70
25753;DHT22;13600;50.816;4.416;2023-04-24T13:40:32;22.60;85.50
25753;DHT22;13600;50.816;4.416;2023-04-24T13:42:58;21.90;85.40
25753;DHT22;13600;50.816;4.416;2023-04-24T13:45:23;21.00;87.80
25753;DHT22;13600;50.816;4.416;2023-04-24T13:47:49;20.80;88.60
25753;DHT22;13600;50.816;4.416;2023-04-24T13:50:15;19.70;90.00
25753;DHT22;13600;50.816;4.416;2023-04-24T13:52:40;19.10;92.30
25753;DHT22;13600;50.816;4.416;2023-04-24T13:55:06;18.60;92.50
25753;DHT22;13600;50.816;4.416;2023-04-24T13:57:32;18.60;93.20
25753;DHT22;13600;50.816;4.416;2023-04-24T13:59:58;18.30;94.60
25753;DHT22;13600;50.816;4.416;2023-04-24T14:02:27;17.80;96.40
25753;DHT22;13600;50.816;4.416;2023-04-24T14:04:52;17.40;97.60
25753;DHT22;13600;50.816;4.416;2023-04-24T14:07:18;17.40;98.50
25753;DHT22;13600;50.816;4.416;2023-04-24T14:09:43;17.60;99.40
25753;DHT22;13600;50.816;4.416;2023-04-24T14:12:09;17.70;98.60
25753;DHT22;13600;50.816;4.416;2023-04-24T14:14:34;17.60;97.70
25753;DHT22;13600;50.816;4.416;2023-04-24T14:17:00;17.50;96.70
25753;DHT22;13600;50.816;4.416;2023-04-24T14:19:26;17.20;97.60
25753;DHT22;13600;50.816;4.416;2023-04-24T14:21:51;16.90;97.70
25753;DHT22;13600;50.816;4.416;2023-04-24T14:24:17;16.60;98.90
25753;DHT22;13600;50.816;4.416;2023-04-24T14:26:43;16.60;98.10
25753;DHT22;13600;50.816;4.416;2023-04-24T14:29:08;16.60;98.30
25753;DHT22;13600;50.816;4.416;2023-04-24T14:31:34;16.20;97.50
25753;DHT22;13600;50.816;4.416;2023-04-24T14:33:59;16.00;98.90
25753;DHT22;13600;50.816;4.416;2023-04-24T14:36:25;16.00;99.00
25753;DHT22;13600;50.816;4.416;2023-04-24T14:38:51;16.20;99.70
25753;DHT22;13600;50.816;4.416;2023-04-24T14:41:16;16.30;99.90
25753;DHT22;13600;50.816;4.416;2023-04-24T14:43:42;16.10;98.30
25753;DHT22;13600;50.816;4.416;2023-04-24T14:46:07;16.10;98.50
25753;DHT22;13600;50.816;4.416;2023-04-24T14:48:33;16.00;99.00
25753;DHT22;13600;50.816;4.416;2023-04-24T14:50:58;15.80;99.20
25753;DHT22;13600;50.816;4.416;2023-04-24T14:53:24;15.70;99.40
25753;DHT22;13600;50.816;4.416;2023-04-24T14:55:50;15.50;99.90
25753;DHT22;13600;50.816;4.416;2023-04-24T14:58:15;15.50;99.90
25753;DHT22;13600;50.816;4.416;2023-04-24T15:00:41;15.70;99.90
25753;DHT22;13600;50.816;4.416;2023-04-24T15:03:06;15.70;99.90
25753;DHT22;13600;50.816;4.416;2023-04-24T15:05:32;15.80;99.90
25753;DHT22;13600;50.816;4.416;2023-04-24T15:07:58;15.70;99.90
25753;DHT22;13600;50.816;4.416;2023-04-24T15:10:24;15.50;99.90
25753;DHT22;13600;50.816;4.416;2023-04-24T15:12:51;15.80;99.90
25753;DHT22;13600;50.816;4.416;2023-04-24T15:15:17;16.00;99.90
25753;DHT22;13600;50.816;4.416;2023-04-24T15:17:42;16.20;99.90
25753;DHT22;13600;50.816;4.416;2023-04-24T15:20:08;16.00;99.90
25753;DHT22;13600;50.816;4.416;2023-04-24T15:22:34;16.00;99.90
25753;DHT22;13600;50.816;4.416;2023-04-24T15:24:59;16.10;99.90
25753;DHT22;13600;50.816;4.416;2023-04-24T15:27:26;15.90;99.90
25753;DHT22;13600;50.816;4.416;2023-04-24T15:29:51;15.70;99.90
25753;DHT22;13600;50.816;4.416;2023-04-24T15:32:18;15.40;99.90
25753;DHT22;13600;50.816;4.416;2023-04-24T15:34:44;15.40;99.90
25753;DHT22;13600;50.816;4.416;2023-04-24T15:37:09;15.40;99.90
25753;DHT22;13600;50.816;4.416;2023-04-24T15:39:35;15.40;99.90